Terminal Aerodrome Forecast
Issued by NWS

Home | Current Version | Previous Version | Text Only | Print | Product List | Glossary Off
Versions: 1 2 3 4 5 6 7 8 9 10 11 12 13 14 15

086
FTUS41 KCLE 211730
TAFFDY
TAF
KFDY 211730Z 2118/2218 36010KT P6SM VCSH SCT040 OVC080
     FM220200 33003KT P6SM SCT070 BKN200
     FM221500 35008KT P6SM BKN035=

USA.gov is the U.S. government's official web portal to all federal, state and local government web resources and services.